Time;durP1;ratioP1;P1;durP2;ratioP2;P2;SDS_P1;SDS_P2;PMS_P1;PMS_P2;Temp;Humidity;BMP_temperature;BMP_pressure;BME280_temperature;BME280_humidity;BME280_pressure;Samples;Min_cycle;Max_cycle;Signal;HPM_P1;HPM_P2
2022/12/01 05:43:51;;;;;;;7.58;3.42;;;;;;;-0.98;81.51;101451.36;1757670;80;21178;-43
2022/12/01 05:46:17;;;;;;;6.65;3.62;;;;;;;-0.95;81.50;101462.22;1762485;80;21527;-40
2022/12/01 05:48:44;;;;;;;8.53;3.70;;;;;;;-0.93;81.43;101456.77;1735474;81;21007;-39
2022/12/01 05:51:14;;;;;;;11.63;3.30;;;;;;;-0.91;81.37;101457.78;1751090;79;20979;-45
2022/12/01 05:53:40;;;;;;;8.55;3.47;;;;;;;-0.88;81.34;101457.95;1753070;80;21570;-40
2022/12/01 05:56:07;;;;;;;5.70;3.05;;;;;;;-0.84;81.37;101454.41;1754150;79;21049;-45
2022/12/01 05:58:34;;;;;;;9.10;3.17;;;;;;;-0.81;81.32;101463.61;1740886;80;21120;-45
2022/12/01 06:01:01;;;;;;;6.75;3.08;;;;;;;-0.78;81.26;101468.05;1740251;80;21030;-45
2022/12/01 06:03:27;;;;;;;9.25;3.60;;;;;;;-0.74;81.17;101466.58;1720296;81;21004;-39
2022/12/01 06:05:53;;;;;;;8.65;3.33;;;;;;;-0.73;81.10;101469.23;1735781;80;21014;-45
2022/12/01 06:08:20;;;;;;;8.28;4.03;;;;;;;-0.69;81.06;101466.47;1741807;80;21100;-45
2022/12/01 06:10:46;;;;;;;9.73;3.70;;;;;;;-0.66;81.03;101467.53;1755769;79;20962;-45
2022/12/01 06:13:13;;;;;;;9.83;3.90;;;;;;;-0.63;80.96;101469.03;1733737;80;21000;-40
2022/12/01 06:15:39;;;;;;;9.73;3.27;;;;;;;-0.56;80.98;101469.91;1744409;79;21419;-46
2022/12/01 06:18:06;;;;;;;8.73;3.95;;;;;;;-0.50;80.89;101465.95;1761655;79;21603;-41
2022/12/01 06:20:33;;;;;;;8.28;3.50;;;;;;;-0.45;80.80;101458.13;1758417;79;21391;-41
2022/12/01 06:23:00;;;;;;;9.98;3.20;;;;;;;-0.42;80.75;101455.73;1763818;79;21026;-46
2022/12/01 06:25:26;;;;;;;10.28;3.95;;;;;;;-0.39;80.60;101447.83;1723967;81;21028;-46
2022/12/01 06:27:58;;;;;;;8.33;3.30;;;;;;;-0.36;80.43;101444.14;1730415;81;21038;-39
2022/12/01 06:30:25;;;;;;;7.50;3.37;;;;;;;-0.31;80.24;101446.60;1717367;81;21578;-39
2022/12/01 06:32:53;;;;;;;7.17;3.62;;;;;;;-0.27;80.07;101450.27;1729505;81;21051;-47
2022/12/01 06:35:20;;;;;;;5.42;3.27;;;;;;;-0.22;79.86;101451.84;1736622;81;21055;-40
2022/12/01 06:37:47;;;;;;;11.43;3.20;;;;;;;-0.18;79.62;101455.06;1750974;80;21907;-40
2022/12/01 06:40:15;;;;;;;10.50;3.25;;;;;;;-0.13;79.44;101453.67;1745242;80;21051;-46
2022/12/01 06:42:43;;;;;;;6.67;3.55;;;;;;;-0.09;79.25;101450.50;1764660;79;21016;-39
2022/12/01 06:45:10;;;;;;;8.28;3.12;;;;;;;-0.04;78.93;101453.84;1741898;80;22101;-45
2022/12/01 06:47:37;;;;;;;9.20;3.33;;;;;;;0.02;78.64;101451.16;1760687;79;20975;-45
2022/12/01 06:50:08;;;;;;;9.58;3.42;;;;;;;0.06;78.35;101454.38;1709098;81;21049;-44
2022/12/01 06:52:37;;;;;;;9.83;3.47;;;;;;;0.12;77.93;101458.24;1779841;78;21298;-45
2022/12/01 06:55:05;;;;;;;5.12;2.98;;;;;;;0.12;77.62;101454.78;1796790;78;21116;-38
2022/12/01 06:57:37;;;;;;;4.40;2.83;;;;;;;0.11;77.16;101449.12;1784871;78;21037;-38
2022/12/01 07:00:07;;;;;;;5.20;3.05;;;;;;;0.09;76.79;101449.44;1786700;78;21107;-40
2022/12/01 07:02:35;;;;;;;8.88;2.77;;;;;;;0.07;76.39;101450.64;1777537;78;21118;-45
2022/12/01 07:05:02;;;;;;;6.95;3.45;;;;;;;0.07;76.21;101451.04;1781438;78;21176;-39
2022/12/01 07:07:30;;;;;;;6.45;2.77;;;;;;;0.08;75.86;101444.69;1770717;78;20976;-44
2022/12/01 07:09:56;;;;;;;7.95;3.20;;;;;;;0.12;75.83;101449.23;1783875;78;21016;-39
2022/12/01 07:12:23;;;;;;;4.25;2.77;;;;;;;0.17;75.56;101450.77;1774953;78;21045;-44
2022/12/01 07:15:00;;;;;;;8.68;3.52;;;;;;;0.20;75.35;101444.53;1774907;78;21052;-40
2022/12/01 07:17:54;;;;;;;7.10;2.90;;;;;;;0.23;75.28;101458.48;1729283;79;21061;-47
2022/12/01 07:20:53;;;;;;;6.50;2.65;;;;;;;0.25;74.48;101449.16;1752035;78;21142;-41
2022/12/01 07:23:23;;;;;;;5.58;2.77;;;;;;;0.25;74.49;101449.16;1763400;79;21013;-40
2022/12/01 07:26:20;;;;;;;9.90;2.85;;;;;;;0.32;74.22;101449.52;1769335;78;21426;-46
2022/12/01 07:28:53;;;;;;;4.37;2.35;;;;;;;0.37;73.91;101442.97;1763499;78;21119;-46
2022/12/01 07:31:19;;;;;;;8.00;2.87;;;;;;;0.46;73.47;101444.77;1722466;80;21095;-45
2022/12/01 07:33:46;;;;;;;8.18;3.20;;;;;;;0.49;73.42;101445.86;1728429;80;21405;-46
2022/12/01 07:36:13;;;;;;;6.42;3.10;;;;;;;0.55;73.33;101449.19;1734006;80;21312;-40
2022/12/01 07:38:40;;;;;;;6.65;2.80;;;;;;;0.61;73.22;101444.39;1700803;82;21226;-46
2022/12/01 07:41:10;;;;;;;5.05;3.12;;;;;;;0.69;73.12;101441.84;1735648;80;20987;-45
2022/12/01 07:43:37;;;;;;;6.92;2.62;;;;;;;0.74;72.79;101435.28;1727470;81;21049;-47
2022/12/01 07:46:07;;;;;;;10.65;2.92;;;;;;;0.82;72.30;101430.99;1701624;81;21583;-47
2022/12/01 07:48:36;;;;;;;7.75;2.90;;;;;;;0.84;72.16;101441.86;1707592;82;21350;-47
2022/12/01 07:51:05;;;;;;;4.33;2.37;;;;;;;0.84;71.42;101436.70;1704094;82;21514;-39
2022/12/01 07:53:32;;;;;;;7.60;2.95;;;;;;;0.82;71.23;101438.72;1698702;82;21149;-40
2022/12/01 07:55:59;;;;;;;5.10;2.65;;;;;;;0.80;70.85;101436.03;1715876;81;21375;-46
2022/12/01 07:58:25;;;;;;;7.45;2.72;;;;;;;0.78;71.05;101438.93;1702932;81;21503;-47
2022/12/01 08:00:52;;;;;;;8.03;2.92;;;;;;;0.83;71.37;101444.36;1723778;81;21644;-47
2022/12/01 10:17:57;;;;;;;8.73;3.60;;;;;;;1.70;70.77;101358.91;1825212;77;23438;-40
2022/12/01 10:21:21;;;;;;;11.78;4.47;;;;;;;1.70;70.69;101363.66;1759645;79;21098;-46
2022/12/01 10:24:08;;;;;;;13.28;4.33;;;;;;;1.67;70.60;101365.17;1756767;80;21011;-46
2022/12/01 10:26:54;;;;;;;8.15;3.45;;;;;;;1.63;70.89;101367.13;1759871;80;21496;-46
2022/12/01 10:29:43;;;;;;;10.05;3.70;;;;;;;1.64;71.09;101372.36;1750271;80;21460;-46
2022/12/01 10:32:31;;;;;;;12.30;3.72;;;;;;;1.61;70.93;101377.34;1757462;80;21120;-45
2022/12/01 10:34:58;;;;;;;5.35;3.80;;;;;;;1.57;71.12;101373.73;1758236;79;21028;-39
2022/12/01 10:37:37;;;;;;;10.28;4.33;;;;;;;1.56;71.19;101372.34;1760436;80;21663;-47
2022/12/01 10:40:18;;;;;;;10.63;3.60;;;;;;;1.54;71.48;101375.25;1759879;80;21031;-40
2022/12/01 10:42:56;;;;;;;9.88;3.20;;;;;;;1.54;71.54;101379.13;1758872;80;21075;-39
2022/12/01 10:45:30;;;;;;;9.63;4.12;;;;;;;1.58;71.63;101374.62;1763017;80;21064;-46
2022/12/01 10:48:20;;;;;;;9.15;3.65;;;;;;;1.58;71.67;101374.62;1754966;80;21012;-45
2022/12/01 10:50:55;;;;;;;6.87;3.02;;;;;;;1.59;71.80;101368.25;1761724;80;21632;-40
2022/12/01 10:53:27;;;;;;;6.15;3.30;;;;;;;1.62;71.80;101366.63;1756830;80;21471;-46
2022/12/01 10:56:11;;;;;;;9.30;3.85;;;;;;;1.67;71.78;101369.05;1758547;80;21552;-40
2022/12/01 10:58:57;;;;;;;9.10;4.05;;;;;;;1.74;71.82;101361.73;1753506;80;21043;-46
2022/12/01 11:02:18;;;;;;;5.55;3.45;;;;;;;1.84;71.91;101363.07;1750709;79;21368;-48
2022/12/01 11:05:04;;;;;;;9.10;3.92;;;;;;;1.97;71.71;101361.63;1756838;80;21989;-42
2022/12/01 11:07:45;;;;;;;8.90;4.15;;;;;;;2.02;71.20;101361.84;1752296;80;21091;-39
2022/12/01 11:10:30;;;;;;;8.43;2.85;;;;;;;2.02;71.34;101358.85;1756397;80;21052;-45
2022/12/01 11:13:08;;;;;;;15.20;4.12;;;;;;;2.02;71.56;101355.39;1755690;80;21021;-46
2022/12/01 11:15:56;;;;;;;10.23;3.37;;;;;;;2.01;71.51;101353.62;1756274;79;21067;-46
2022/12/01 11:19:18;;;;;;;7.80;3.42;;;;;;;1.98;71.15;101354.77;1718378;80;21550;-48
2022/12/01 11:21:50;;;;;;;7.72;4.22;;;;;;;1.90;71.00;101353.47;1758678;80;21623;-51
2022/12/01 11:24:45;;;;;;;10.78;3.50;;;;;;;1.77;71.30;101351.95;1720741;80;20964;-42
2022/12/01 11:27:24;;;;;;;7.17;3.87;;;;;;;1.67;71.57;101354.86;1762494;79;21027;-47
2022/12/01 11:29:55;;;;;;;9.78;3.87;;;;;;;1.59;71.90;101362.20;1753690;79;21347;-40
2022/12/01 11:32:46;;;;;;;7.97;3.72;;;;;;;1.55;71.98;101352.11;1754487;79;21408;-41
2022/12/01 11:35:57;;;;;;;9.10;3.98;;;;;;;1.51;72.24;101353.19;1743819;80;21442;-48
2022/12/01 11:38:42;;;;;;;13.35;4.80;;;;;;;1.47;72.66;101357.28;1769300;80;21444;-48
2022/12/01 11:45:33;;;;;;;10.85;4.15;;;;;;;1.46;73.08;101356.80;1719945;81;21063;-47
2022/12/01 11:48:08;;;;;;;11.55;4.40;;;;;;;1.53;73.49;101357.60;1728622;81;21014;-48
2022/12/01 11:50:39;;;;;;;8.93;4.33;;;;;;;1.64;73.41;101345.68;1730107;81;21498;-42
2022/12/01 11:53:29;;;;;;;8.43;4.17;;;;;;;1.68;73.12;101348.88;1739451;81;21638;-43
2022/12/01 11:56:22;;;;;;;10.30;4.08;;;;;;;1.70;73.09;101348.58;1725558;81;21523;-46
2022/12/01 11:58:54;;;;;;;7.50;3.62;;;;;;;1.74;73.17;101349.20;1725010;81;21016;-47
2022/12/01 12:02:00;;;;;;;12.73;3.95;;;;;;;1.77;72.83;101338.65;1729630;81;21633;-49
2022/12/01 12:05:07;;;;;;;8.23;3.98;;;;;;;1.79;72.55;101343.47;1730449;81;21351;-48
2022/12/01 12:08:00;;;;;;;6.20;3.12;;;;;;;1.78;72.66;101339.53;1730226;81;22288;-46
2022/12/01 12:10:44;;;;;;;7.70;3.22;;;;;;;1.77;72.64;101341.64;1731095;81;21025;-47
2022/12/01 12:13:50;;;;;;;9.23;3.92;;;;;;;1.71;72.48;101339.63;1733615;81;21914;-41
2022/12/01 12:16:57;;;;;;;13.53;3.60;;;;;;;1.68;72.63;101339.85;1723129;81;21094;-41
2022/12/01 12:20:08;;;;;;;15.13;4.50;;;;;;;1.67;72.62;101341.95;1728759;81;21051;-39
2022/12/01 12:22:53;;;;;;;7.58;4.10;;;;;;;1.67;72.92;101347.11;1731591;81;21019;-39
2022/12/01 12:25:42;;;;;;;10.35;4.35;;;;;;;1.73;73.16;101348.31;1714815;82;21739;-40
2022/12/01 12:28:24;;;;;;;8.83;4.35;;;;;;;1.78;72.99;101340.41;1656701;86;21015;-40
2022/12/01 12:31:23;;;;;;;9.40;4.60;;;;;;;1.80;72.69;101340.11;1669642;86;21030;-39
2022/12/01 12:34:13;;;;;;;13.38;4.87;;;;;;;1.80;72.39;101343.10;1655461;86;21026;-41
2022/12/01 12:37:02;;;;;;;12.70;4.90;;;;;;;1.74;72.29;101350.12;1660727;86;21680;-40
2022/12/01 12:40:12;;;;;;;11.60;4.83;;;;;;;1.68;72.59;101342.43;1656540;86;21023;-39
2022/12/01 12:43:05;;;;;;;12.03;4.72;;;;;;;1.68;72.82;101342.43;1642723;86;21068;-41
2022/12/01 12:45:55;;;;;;;6.17;4.17;;;;;;;1.67;73.19;101347.11;1633760;86;21708;-41
2022/12/01 12:49:10;;;;;;;12.43;4.47;;;;;;;1.66;73.16;101347.92;1650022;86;21485;-44
2022/12/01 12:51:43;;;;;;;11.12;4.65;;;;;;;1.64;73.28;101348.27;1636580;86;21055;-39
2022/12/01 12:54:27;;;;;;;15.00;5.15;;;;;;;1.58;73.38;101342.37;1641928;86;21613;-40
2022/12/01 12:56:58;;;;;;;12.95;4.17;;;;;;;1.57;73.32;101346.66;1641870;86;21028;-41
2022/12/01 12:59:39;;;;;;;9.53;4.47;;;;;;;1.56;73.40;101352.99;1644684;86;21548;-40
2022/12/01 13:02:38;;;;;;;13.00;4.35;;;;;;;1.54;73.37;101350.34;1640540;86;21020;-40
2022/12/01 13:05:36;;;;;;;15.45;5.00;;;;;;;1.49;73.32;101353.48;1687205;84;21080;-40
2022/12/01 13:08:20;;;;;;;11.70;4.45;;;;;;;1.45;73.45;101347.30;1641685;86;21582;-41
2022/12/01 13:10:58;;;;;;;8.03;5.08;;;;;;;1.43;73.50;101351.87;1641706;87;21111;-48
2022/12/01 13:13:56;;;;;;;10.98;4.55;;;;;;;1.41;73.60;101351.80;1660543;84;21024;-47
2022/12/01 13:16:37;;;;;;;13.20;4.85;;;;;;;1.36;73.63;101346.79;1680657;83;21458;-47
2022/12/01 13:19:08;;;;;;;13.15;4.72;;;;;;;1.32;73.69;101350.00;1697810;83;21094;-47
2022/12/01 13:21:38;;;;;;;16.43;5.43;;;;;;;1.29;73.64;101344.70;1698538;83;21028;-47
2022/12/01 13:24:06;;;;;;;10.95;4.50;;;;;;;1.26;73.59;101340.24;1704428;82;21651;-40
2022/12/01 13:26:34;;;;;;;10.28;4.78;;;;;;;1.22;73.77;101342.59;1700844;82;21043;-40
2022/12/01 13:29:04;;;;;;;7.83;3.98;;;;;;;1.18;73.89;101347.09;1700821;83;21067;-41
2022/12/01 13:31:32;;;;;;;11.40;5.17;;;;;;;1.15;74.09;101351.66;1670990;84;21014;-47
